Time;durP1;ratioP1;P1;durP2;ratioP2;P2;SDS_P1;SDS_P2;PMS_P1;PMS_P2;Temp;Humidity;BMP_temperature;BMP_pressure;BME280_temperature;BME280_humidity;BME280_pressure;Samples;Min_cycle;Max_cycle;Signal;HPM_P1;HPM_P2
2023/04/05 00:00:36;;;;;;;13.52;6.45;;;3.10;99.90;;;;;;4980806;28;20038;-68
2023/04/05 00:03:03;;;;;;;9.13;5.60;;;3.00;99.90;;;;;;4980511;28;20316;-68
2023/04/05 00:05:29;;;;;;;11.93;6.07;;;3.00;99.90;;;;;;4980734;28;20125;-68
2023/04/05 00:07:59;;;;;;;8.95;5.70;;;3.00;99.90;;;;;;4991035;28;20043;-68
2023/04/05 00:10:25;;;;;;;10.80;6.43;;;3.00;99.90;;;;;;4980670;28;20490;-68
2023/04/05 00:12:51;;;;;;;9.63;5.50;;;2.90;99.90;;;;;;4985978;28;20105;-68
2023/04/05 00:15:17;;;;;;;10.18;5.30;;;2.90;99.90;;;;;;4982795;28;20050;-68
2023/04/05 00:17:44;;;;;;;11.65;6.15;;;2.80;99.90;;;;;;4981861;28;20420;-68
2023/04/05 00:20:10;;;;;;;12.45;6.55;;;2.80;99.90;;;;;;4975635;28;20396;-67
2023/04/05 00:22:37;;;;;;;8.70;5.43;;;2.90;99.90;;;;;;4968112;28;20046;-67
2023/04/05 00:25:03;;;;;;;11.52;6.50;;;2.90;99.90;;;;;;4964516;28;20066;-66
2023/04/05 00:27:28;;;;;;;13.68;6.30;;;2.80;99.90;;;;;;4972172;28;20161;-67
2023/04/05 00:29:54;;;;;;;11.20;6.15;;;2.90;99.90;;;;;;4972543;28;20039;-66
2023/04/05 00:32:20;;;;;;;14.02;6.97;;;2.80;99.90;;;;;;4968151;28;20121;-66
2023/04/05 00:34:46;;;;;;;12.15;6.80;;;2.70;99.90;;;;;;4969783;28;20038;-66
2023/04/05 00:37:11;;;;;;;11.68;6.53;;;2.70;99.90;;;;;;4966570;28;20069;-66
2023/04/05 00:39:38;;;;;;;12.23;6.10;;;2.70;99.90;;;;;;4966449;28;20406;-66
2023/04/05 00:42:05;;;;;;;11.50;6.53;;;2.70;99.90;;;;;;4961807;28;20478;-66
2023/04/05 00:44:33;;;;;;;14.02;6.35;;;2.60;99.90;;;;;;4961040;28;20027;-66
2023/04/05 00:47:08;;;;;;;11.88;6.70;;;2.50;99.90;;;;;;4965844;28;20034;-66
2023/04/05 00:49:35;;;;;;;10.25;5.82;;;2.50;99.90;;;;;;4960151;28;20567;-66
2023/04/05 00:52:01;;;;;;;9.27;6.18;;;2.50;99.90;;;;;;4967762;28;20509;-66
2023/04/05 00:54:31;;;;;;;14.07;6.60;;;2.50;99.90;;;;;;4971664;28;20038;-65
2023/04/05 00:57:00;;;;;;;9.63;6.07;;;2.50;99.90;;;;;;4969102;28;20047;-66
2023/04/05 00:59:29;;;;;;;11.70;6.03;;;2.50;99.90;;;;;;4969835;28;20517;-66
2023/04/05 01:02:00;;;;;;;12.07;6.10;;;2.40;99.90;;;;;;4975263;28;20039;-66
2023/04/05 01:04:29;;;;;;;10.52;6.00;;;2.50;99.90;;;;;;4966779;28;20110;-67
2023/04/05 01:07:08;;;;;;;9.13;6.05;;;2.40;99.90;;;;;;4966294;28;20419;-68
2023/04/05 01:09:46;;;;;;;9.40;6.22;;;2.30;99.90;;;;;;4973538;28;20128;-69
2023/04/05 01:12:16;;;;;;;12.18;5.85;;;2.10;99.90;;;;;;4973090;28;20034;-68
2023/04/05 01:14:48;;;;;;;10.43;5.95;;;2.20;99.90;;;;;;4968487;28;20093;-69
2023/04/05 01:17:15;;;;;;;13.27;6.25;;;2.20;99.90;;;;;;4972879;28;20034;-69
2023/04/05 01:19:46;;;;;;;11.65;6.03;;;2.20;99.90;;;;;;4970013;28;20062;-69
2023/04/05 01:22:39;;;;;;;11.65;6.32;;;2.30;99.90;;;;;;4966062;28;20394;-69
2023/04/05 01:25:29;;;;;;;11.10;6.47;;;2.20;99.90;;;;;;4962720;28;20030;-69
2023/04/05 01:28:21;;;;;;;10.63;6.28;;;2.30;99.90;;;;;;4965521;28;20034;-70
2023/04/05 01:30:54;;;;;;;12.35;5.57;;;2.10;99.90;;;;;;4964223;28;20174;-69
2023/04/05 01:33:33;;;;;;;11.88;6.30;;;2.10;99.90;;;;;;4969683;28;20165;-70
2023/04/05 01:36:30;;;;;;;12.63;6.15;;;2.10;99.90;;;;;;4975557;28;20423;-70
2023/04/05 01:38:58;;;;;;;9.75;5.90;;;2.10;99.90;;;;;;4979922;28;20038;-70
2023/04/05 01:41:25;;;;;;;10.38;6.00;;;2.10;99.90;;;;;;4981574;28;21129;-70
2023/04/05 01:43:50;;;;;;;9.38;5.75;;;2.00;99.90;;;;;;4983559;28;20046;-70
2023/04/05 01:46:16;;;;;;;8.18;5.82;;;2.00;99.90;;;;;;4982167;28;20070;-70
2023/04/05 01:48:41;;;;;;;9.27;5.82;;;1.90;99.90;;;;;;4981451;28;20030;-70
2023/04/05 01:51:07;;;;;;;11.07;5.78;;;1.90;99.90;;;;;;4979071;28;20110;-70
2023/04/05 01:53:33;;;;;;;12.85;6.10;;;1.90;99.90;;;;;;4974741;28;20042;-70
2023/04/05 01:56:00;;;;;;;10.63;6.05;;;2.00;99.90;;;;;;4994159;28;20065;-70
2023/04/05 01:58:26;;;;;;;11.38;6.30;;;2.00;99.90;;;;;;4983450;28;20748;-70
2023/04/05 02:00:54;;;;;;;11.57;5.95;;;1.90;99.90;;;;;;4983393;28;20125;-70
2023/04/05 02:03:20;;;;;;;11.48;6.25;;;1.90;99.90;;;;;;4981749;28;20089;-69
2023/04/05 02:05:46;;;;;;;11.07;6.32;;;1.90;99.90;;;;;;4983108;28;20061;-69
2023/04/05 02:08:13;;;;;;;11.82;6.28;;;2.00;99.90;;;;;;4989710;28;20038;-69
2023/04/05 02:10:39;;;;;;;12.05;6.43;;;1.80;99.90;;;;;;4985147;28;20117;-69
2023/04/05 02:13:05;;;;;;;14.95;6.60;;;1.90;99.90;;;;;;4984948;28;20042;-69
2023/04/05 02:15:32;;;;;;;9.38;6.22;;;1.90;99.90;;;;;;4990242;28;20153;-70
2023/04/05 02:18:00;;;;;;;15.20;6.45;;;1.90;99.90;;;;;;4987297;28;20038;-69
2023/04/05 02:20:27;;;;;;;10.00;6.18;;;1.70;99.90;;;;;;4985410;28;20034;-69
2023/04/05 02:22:53;;;;;;;11.48;6.57;;;1.60;99.90;;;;;;4983037;28;20030;-69
2023/04/05 02:25:18;;;;;;;11.63;6.35;;;1.70;99.90;;;;;;4993552;28;20125;-69
2023/04/05 02:27:44;;;;;;;11.90;6.53;;;1.60;99.90;;;;;;4985806;28;20122;-69
2023/04/05 02:30:12;;;;;;;12.23;6.43;;;1.60;99.90;;;;;;4982080;28;20464;-69
2023/04/05 02:32:41;;;;;;;12.10;6.47;;;1.70;99.90;;;;;;4985269;28;20037;-69
2023/04/05 02:35:07;;;;;;;11.52;6.93;;;1.70;99.90;;;;;;4988279;28;20080;-69
2023/04/05 02:37:33;;;;;;;12.50;6.53;;;1.60;99.90;;;;;;4981338;28;20045;-69
2023/04/05 02:39:59;;;;;;;15.43;6.57;;;1.60;99.90;;;;;;4988155;28;20037;-69
2023/04/05 02:42:24;;;;;;;8.55;6.28;;;1.50;99.90;;;;;;4985241;28;20026;-69
2023/04/05 02:44:51;;;;;;;10.75;6.57;;;1.50;99.90;;;;;;4988625;28;20121;-69
2023/04/05 02:47:20;;;;;;;10.88;6.05;;;1.60;99.90;;;;;;4983667;28;20030;-70
2023/04/05 02:49:47;;;;;;;11.13;6.68;;;1.60;99.90;;;;;;4985717;28;20113;-69
2023/04/05 02:52:13;;;;;;;14.20;7.03;;;1.50;99.90;;;;;;4979815;28;20042;-69
2023/04/05 02:54:38;;;;;;;11.50;6.70;;;1.50;99.90;;;;;;4980595;28;20032;-69
2023/04/05 02:57:04;;;;;;;16.73;7.28;;;1.50;99.90;;;;;;4983046;28;20479;-69
2023/04/05 02:59:29;;;;;;;11.68;6.78;;;1.40;99.90;;;;;;4985380;28;20030;-69
2023/04/05 03:01:55;;;;;;;10.90;6.88;;;1.40;99.90;;;;;;4984297;28;20041;-70
2023/04/05 03:04:21;;;;;;;10.65;7.18;;;1.30;99.90;;;;;;4985042;28;20125;-69
2023/04/05 03:06:48;;;;;;;10.38;6.50;;;1.40;99.90;;;;;;4979031;28;20023;-69
2023/04/05 03:09:14;;;;;;;11.32;6.78;;;1.30;99.90;;;;;;4990214;28;20039;-69
2023/04/05 03:11:39;;;;;;;11.45;6.93;;;1.30;99.90;;;;;;4985717;28;20173;-69
2023/04/05 03:14:05;;;;;;;14.88;7.22;;;1.30;99.90;;;;;;4984032;28;20041;-69
2023/04/05 03:16:31;;;;;;;12.30;7.50;;;1.30;99.90;;;;;;4980309;28;20088;-69
2023/04/05 03:18:56;;;;;;;17.73;7.38;;;1.30;99.90;;;;;;4988142;28;20264;-70
2023/04/05 03:21:22;;;;;;;15.18;7.40;;;1.30;99.90;;;;;;4983380;28;20388;-69
2023/04/05 03:23:49;;;;;;;12.80;6.80;;;1.30;99.90;;;;;;4983443;28;20220;-70
2023/04/05 03:26:15;;;;;;;11.73;6.72;;;1.20;99.90;;;;;;4983356;28;20116;-69
2023/04/05 03:28:43;;;;;;;14.98;7.32;;;1.20;99.90;;;;;;4985540;28;20066;-69
2023/04/05 03:31:10;;;;;;;13.35;6.85;;;1.10;99.90;;;;;;4977039;28;20058;-68
2023/04/05 03:33:36;;;;;;;10.82;7.22;;;1.10;99.90;;;;;;4983376;28;20038;-69
2023/04/05 03:36:03;;;;;;;12.38;7.35;;;1.10;99.90;;;;;;4982905;28;20038;-68
2023/04/05 03:38:31;;;;;;;14.20;7.15;;;1.10;99.90;;;;;;4982704;28;20103;-69
2023/04/05 03:40:56;;;;;;;13.25;7.45;;;1.10;99.90;;;;;;4985086;28;20224;-69
2023/04/05 03:43:22;;;;;;;10.45;6.80;;;1.10;99.90;;;;;;4984690;28;20228;-68
2023/04/05 03:45:48;;;;;;;11.45;6.70;;;1.10;99.90;;;;;;4987081;28;20078;-69
2023/04/05 03:48:18;;;;;;;11.85;6.75;;;1.10;99.90;;;;;;4983006;28;20033;-68
2023/04/05 03:50:47;;;;;;;12.65;7.22;;;1.10;99.90;;;;;;4987934;28;20048;-68
2023/04/05 03:53:12;;;;;;;12.27;6.85;;;1.10;99.90;;;;;;4981034;28;20042;-68
2023/04/05 03:55:49;;;;;;;12.38;6.65;;;1.10;99.90;;;;;;4985244;28;20103;-69
2023/04/05 03:58:15;;;;;;;12.52;7.50;;;1.00;99.90;;;;;;4981742;28;20034;-68
2023/04/05 04:00:41;;;;;;;14.90;6.72;;;1.00;99.90;;;;;;4983833;28;20695;-69
2023/04/05 04:03:08;;;;;;;12.77;7.00;;;1.00;99.90;;;;;;4983458;28;20034;-68
2023/04/05 04:05:37;;;;;;;20.75;6.97;;;1.00;99.90;;;;;;4985311;28;20035;-68
2023/04/05 04:08:06;;;;;;;13.02;7.88;;;1.00;99.90;;;;;;4974106;28;20119;-68
2023/04/05 04:10:33;;;;;;;13.15;7.50;;;0.90;99.90;;;;;;4982825;28;20057;-68
2023/04/05 04:12:58;;;;;;;16.42;8.18;;;1.00;99.90;;;;;;4983987;28;20612;-68
2023/04/05 04:15:24;;;;;;;15.65;7.60;;;1.00;99.90;;;;;;4986438;28;20129;-69
2023/04/05 04:17:49;;;;;;;15.88;7.57;;;0.90;99.90;;;;;;4983071;28;20109;-68
2023/04/05 04:20:15;;;;;;;11.82;7.40;;;0.80;99.90;;;;;;4984313;28;20033;-68
2023/04/05 04:22:41;;;;;;;13.93;7.20;;;0.90;99.90;;;;;;4981676;28;20038;-68
2023/04/05 04:25:09;;;;;;;15.43;7.70;;;0.80;99.90;;;;;;4983628;28;20054;-68
2023/04/05 04:27:39;;;;;;;14.38;7.47;;;0.80;99.90;;;;;;4981996;28;20046;-68
2023/04/05 04:30:09;;;;;;;13.75;7.47;;;0.80;99.90;;;;;;4978023;28;20469;-69
2023/04/05 04:32:52;;;;;;;14.90;7.60;;;0.80;99.90;;;;;;4984253;28;20518;-68
2023/04/05 04:35:23;;;;;;;15.75;8.07;;;0.90;99.90;;;;;;4985712;28;20042;-69
2023/04/05 04:37:56;;;;;;;15.07;7.47;;;0.90;99.90;;;;;;4982921;28;20030;-69
2023/04/05 04:40:37;;;;;;;16.52;7.47;;;0.80;99.90;;;;;;4981052;28;20121;-71
2023/04/05 04:43:13;;;;;;;15.07;7.68;;;0.80;99.90;;;;;;4982366;28;20042;-69
2023/04/05 04:45:40;;;;;;;15.95;8.10;;;0.70;99.90;;;;;;4983834;28;20030;-69
2023/04/05 04:48:07;;;;;;;16.08;7.57;;;0.70;99.90;;;;;;4983068;28;20144;-69
2023/04/05 04:50:32;;;;;;;17.20;8.05;;;0.70;99.90;;;;;;4983908;28;20450;-69
2023/04/05 04:53:00;;;;;;;14.40;7.60;;;0.80;99.90;;;;;;4982387;28;20058;-69
2023/04/05 04:55:27;;;;;;;12.43;7.40;;;0.80;99.90;;;;;;4979899;28;20046;-69
2023/04/05 04:57:53;;;;;;;11.95;7.03;;;0.70;99.90;;;;;;4983677;28;20031;-69
2023/04/05 05:00:20;;;;;;;10.63;6.72;;;0.70;99.90;;;;;;4983926;28;20034;-69
2023/04/05 05:02:46;;;;;;;12.48;7.68;;;0.70;99.90;;;;;;4984459;28;20355;-70
2023/04/05 05:05:12;;;;;;;13.82;8.10;;;0.70;99.90;;;;;;4982587;28;20031;-69
2023/04/05 05:07:42;;;;;;;17.63;7.88;;;0.70;99.90;;;;;;4981306;28;20113;-69
2023/04/05 05:10:15;;;;;;;13.60;7.55;;;0.70;99.90;;;;;;4992022;28;20031;-69
2023/04/05 05:12:41;;;;;;;10.38;5.78;;;0.70;99.90;;;;;;4982648;28;20034;-70
2023/04/05 05:15:07;;;;;;;13.80;7.55;;;0.70;99.90;;;;;;4982961;28;20407;-69
2023/04/05 05:17:34;;;;;;;13.18;7.93;;;0.70;99.90;;;;;;4980911;28;20116;-69
2023/04/05 05:20:00;;;;;;;13.10;6.97;;;0.80;99.90;;;;;;4986157;28;20438;-70
2023/04/05 05:22:26;;;;;;;12.80;7.13;;;0.80;99.90;;;;;;4981652;28;20101;-70
2023/04/05 05:24:52;;;;;;;15.50;7.32;;;0.80;99.90;;;;;;4984006;28;20031;-70
2023/04/05 05:27:18;;;;;;;12.00;6.70;;;0.80;99.90;;;;;;4985043;28;20077;-69
2023/04/05 05:29:43;;;;;;;16.17;8.23;;;0.70;99.90;;;;;;4980746;28;20077;-69
2023/04/05 05:32:14;;;;;;;16.75;7.78;;;0.70;99.90;;;;;;4979672;28;20130;-67
2023/04/05 05:34:40;;;;;;;12.55;7.95;;;0.70;99.90;;;;;;4982980;28;20454;-62
2023/04/05 05:37:08;;;;;;;14.77;7.63;;;0.70;99.90;;;;;;4972489;28;20049;-62
2023/04/05 05:39:35;;;;;;;16.17;8.63;;;0.80;99.90;;;;;;4981766;28;20046;-62
2023/04/05 05:42:01;;;;;;;16.98;8.18;;;0.80;99.90;;;;;;4983436;28;20556;-62
2023/04/05 05:44:28;;;;;;;17.80;7.97;;;0.90;99.90;;;;;;4986105;28;20096;-62
2023/04/05 05:46:53;;;;;;;14.07;7.78;;;0.90;99.90;;;;;;4984717;28;20030;-62
2023/04/05 05:49:19;;;;;;;12.45;7.65;;;1.00;99.90;;;;;;4982066;28;20041;-62
2023/04/05 05:51:45;;;;;;;17.40;8.63;;;1.00;99.90;;;;;;4979143;28;20042;-62
2023/04/05 05:54:10;;;;;;;13.75;8.25;;;1.10;99.90;;;;;;4978113;28;20036;-63
2023/04/05 05:56:36;;;;;;;16.23;7.80;;;1.20;99.90;;;;;;4980787;28;20061;-62
2023/04/05 05:59:02;;;;;;;15.95;9.07;;;1.20;99.90;;;;;;4983483;28;20042;-63
2023/04/05 06:01:28;;;;;;;15.60;8.45;;;1.30;99.90;;;;;;4982526;28;20462;-62
2023/04/05 06:03:54;;;;;;;17.10;9.25;;;1.40;99.90;;;;;;4983841;28;20034;-62
2023/04/05 06:06:20;;;;;;;17.20;9.27;;;1.40;99.90;;;;;;4975371;28;20042;-62
2023/04/05 06:08:46;;;;;;;16.73;8.93;;;1.50;99.90;;;;;;4981018;28;20129;-62
2023/04/05 06:11:20;;;;;;;19.35;9.05;;;1.60;99.90;;;;;;4985246;28;20128;-62
2023/04/05 06:13:46;;;;;;;17.80;9.25;;;1.60;99.90;;;;;;4985017;28;20728;-62
2023/04/05 06:16:11;;;;;;;18.30;9.50;;;1.80;99.90;;;;;;4984382;28;20156;-62
2023/04/05 06:18:37;;;;;;;14.90;9.65;;;1.80;99.90;;;;;;4981582;28;20475;-62
2023/04/05 06:21:02;;;;;;;19.13;9.77;;;1.80;99.90;;;;;;4985316;28;20093;-62
2023/04/05 06:23:28;;;;;;;16.20;10.80;;;2.10;99.90;;;;;;4983473;28;20038;-62
2023/04/05 06:25:55;;;;;;;18.73;10.85;;;2.30;99.90;;;;;;4982558;28;20583;-61
2023/04/05 06:28:21;;;;;;;22.20;11.23;;;2.50;99.90;;;;;;4978252;28;20034;-62
2023/04/05 06:30:47;;;;;;;24.08;12.30;;;2.60;99.90;;;;;;4982662;28;20042;-62
2023/04/05 06:33:12;;;;;;;22.08;12.60;;;2.90;99.90;;;;;;4983724;28;20026;-62
2023/04/05 06:35:38;;;;;;;42.33;25.05;;;3.10;99.90;;;;;;4983193;28;20044;-60
2023/04/05 06:38:04;;;;;;;264.63;178.38;;;3.00;99.90;;;;;;4980269;28;20038;-65
2023/04/05 06:40:29;;;;;;;29.60;16.52;;;3.10;99.90;;;;;;4979915;28;20046;-66
2023/04/05 06:42:55;;;;;;;26.30;13.80;;;3.20;99.90;;;;;;4982030;28;20118;-67
2023/04/05 06:45:20;;;;;;;22.50;12.63;;;3.30;99.90;;;;;;4983685;28;20158;-66
2023/04/05 06:47:46;;;;;;;23.85;12.43;;;3.40;99.90;;;;;;4984591;28;20061;-66
2023/04/05 06:50:12;;;;;;;21.92;12.27;;;3.60;99.90;;;;;;4982460;28;20565;-67
2023/04/05 06:52:38;;;;;;;23.23;11.32;;;3.70;99.90;;;;;;4983166;28;20193;-67
2023/04/05 06:55:04;;;;;;;24.45;10.25;;;3.80;99.90;;;;;;4982947;28;20182;-67
2023/04/05 06:57:29;;;;;;;18.10;10.00;;;4.10;99.90;;;;;;4983245;28;20031;-67
2023/04/05 06:59:55;;;;;;;16.10;9.65;;;4.20;99.90;;;;;;4980010;28;20022;-67
2023/04/05 07:02:21;;;;;;;18.52;10.18;;;4.30;99.90;;;;;;4979960;28;21970;-67
2023/04/05 07:04:47;;;;;;;16.88;9.15;;;4.20;99.90;;;;;;4981795;28;20459;-67
2023/04/05 07:07:13;;;;;;;12.70;7.10;;;4.40;99.90;;;;;;4980331;28;20026;-66
2023/04/05 07:09:39;;;;;;;13.65;6.80;;;4.60;99.90;;;;;;4979404;28;20125;-66
2023/04/05 07:12:06;;;;;;;11.40;7.07;;;4.60;99.90;;;;;;4981348;28;20794;-66
2023/04/05 07:14:36;;;;;;;13.45;6.88;;;4.80;99.90;;;;;;4977483;28;20129;-66
2023/04/05 07:17:05;;;;;;;13.23;6.80;;;4.80;99.90;;;;;;4972173;28;20041;-66
2023/04/05 07:19:30;;;;;;;11.48;6.60;;;4.90;99.90;;;;;;4965305;28;20398;-65
2023/04/05 07:21:58;;;;;;;13.35;6.85;;;5.10;99.90;;;;;;4971615;28;20035;-65
2023/04/05 07:24:24;;;;;;;16.38;6.25;;;5.20;99.90;;;;;;4966358;28;20111;-66
2023/04/05 07:26:49;;;;;;;11.57;7.20;;;5.30;99.90;;;;;;4969288;28;20046;-66
2023/04/05 07:29:15;;;;;;;12.15;7.68;;;5.40;99.90;;;;;;4975455;28;20554;-66
2023/04/05 07:31:41;;;;;;;12.13;7.57;;;5.40;99.90;;;;;;4972767;28;20545;-66
2023/04/05 07:34:06;;;;;;;14.32;7.30;;;5.60;99.90;;;;;;4977539;28;20045;-66
2023/04/05 07:36:32;;;;;;;19.45;7.20;;;5.60;99.90;;;;;;4973786;28;20046;-66
2023/04/05 07:38:58;;;;;;;13.45;7.53;;;5.70;99.90;;;;;;4977384;28;20116;-66
2023/04/05 07:41:25;;;;;;;15.70;6.75;;;5.60;99.90;;;;;;4975925;28;20478;-66
2023/04/05 07:43:51;;;;;;;14.52;7.07;;;5.70;99.90;;;;;;4973572;28;20065;-65
2023/04/05 07:46:17;;;;;;;10.57;6.68;;;5.70;99.90;;;;;;4970520;28;20042;-66
2023/04/05 07:48:42;;;;;;;12.30;7.30;;;5.70;99.90;;;;;;4974157;28;20233;-65
2023/04/05 07:51:09;;;;;;;13.30;7.28;;;5.80;99.90;;;;;;4975377;28;20145;-66
2023/04/05 07:53:36;;;;;;;11.38;6.60;;;5.90;99.90;;;;;;4977919;28;21781;-66
2023/04/05 07:56:12;;;;;;;11.48;6.57;;;5.80;99.90;;;;;;4975566;28;20096;-66
2023/04/05 07:58:39;;;;;;;11.82;7.22;;;5.90;99.90;;;;;;4982193;28;20069;-65
2023/04/05 08:01:07;;;;;;;9.27;6.82;;;6.00;99.90;;;;;;4975222;28;20050;-66
2023/04/05 08:03:33;;;;;;;9.65;6.25;;;6.00;99.90;;;;;;4980163;28;20111;-65
2023/04/05 08:06:09;;;;;;;14.00;7.03;;;6.10;99.90;;;;;;4977153;28;20046;-66
2023/04/05 08:08:35;;;;;;;9.95;6.60;;;6.20;99.90;;;;;;4977709;28;20398;-66
2023/04/05 08:11:04;;;;;;;10.90;6.68;;;6.20;99.90;;;;;;4974409;28;20053;-65
2023/04/05 08:13:29;;;;;;;12.75;7.00;;;6.10;99.90;;;;;;4978335;28;20129;-65
2023/04/05 08:16:00;;;;;;;10.45;6.93;;;6.20;99.90;;;;;;4975911;28;20283;-66
2023/04/05 08:18:25;;;;;;;11.25;6.93;;;6.30;99.90;;;;;;4972560;28;21924;-65
2023/04/05 08:20:53;;;;;;;11.98;7.05;;;6.30;99.90;;;;;;4975640;28;20039;-65
2023/04/05 08:23:19;;;;;;;13.27;7.05;;;6.40;99.90;;;;;;4972814;28;20059;-66
2023/04/05 08:25:44;;;;;;;12.00;7.65;;;6.50;99.90;;;;;;4972685;28;20066;-65
2023/04/05 08:28:10;;;;;;;14.45;7.38;;;6.70;99.90;;;;;;4973063;28;20557;-65
2023/04/05 08:30:36;;;;;;;10.38;6.97;;;6.90;99.90;;;;;;4967111;28;20125;-66
2023/04/05 08:33:02;;;;;;;13.82;7.20;;;6.90;99.90;;;;;;4972674;28;20070;-67
2023/04/05 08:35:27;;;;;;;14.25;7.70;;;6.80;99.90;;;;;;4975834;28;20149;-66
2023/04/05 08:37:53;;;;;;;18.23;7.53;;;6.90;99.90;;;;;;4973192;28;20113;-66
2023/04/05 08:40:18;;;;;;;14.57;7.43;;;6.90;99.90;;;;;;4972949;28;20038;-66
2023/04/05 08:42:55;;;;;;;12.63;7.30;;;7.00;99.90;;;;;;4973479;28;20154;-66
2023/04/05 08:45:24;;;;;;;14.60;7.72;;;7.10;99.90;;;;;;4973261;28;20034;-66
2023/04/05 08:47:52;;;;;;;152.60;48.40;;;7.00;99.90;;;;;;4973609;28;20469;-66
2023/04/05 08:50:17;;;;;;;42.28;16.92;;;6.90;99.90;;;;;;4972935;28;20070;-66
2023/04/05 08:52:48;;;;;;;115.60;37.22;;;7.10;99.90;;;;;;4971978;28;20485;-66
2023/04/05 08:55:15;;;;;;;167.68;54.85;;;7.30;99.90;;;;;;4971366;28;20069;-66
2023/04/05 08:57:43;;;;;;;19.52;11.10;;;7.50;99.90;;;;;;4971999;28;20388;-66
2023/04/05 09:00:10;;;;;;;13.30;8.75;;;7.40;99.90;;;;;;4977926;28;20121;-65
2023/04/05 09:02:37;;;;;;;14.93;9.13;;;7.30;99.90;;;;;;4972449;28;20057;-66
2023/04/05 09:05:07;;;;;;;37.95;16.40;;;7.40;99.90;;;;;;4974353;28;20030;-66
2023/04/05 09:07:35;;;;;;;89.72;31.83;;;7.40;99.90;;;;;;4973460;28;20050;-66
2023/04/05 09:10:04;;;;;;;29.85;14.15;;;7.60;99.90;;;;;;4974422;28;20100;-66
2023/04/05 09:12:30;;;;;;;15.20;9.00;;;7.50;99.90;;;;;;4973308;28;20085;-66
2023/04/05 09:14:56;;;;;;;52.55;20.85;;;7.70;99.90;;;;;;4975053;28;20465;-66
2023/04/05 09:17:22;;;;;;;26.42;12.70;;;7.80;99.90;;;;;;4982997;28;20057;-66
2023/04/05 09:19:51;;;;;;;17.70;10.10;;;7.90;99.90;;;;;;4975033;28;20427;-66
2023/04/05 09:22:17;;;;;;;60.53;24.65;;;7.80;99.90;;;;;;4975599;28;20121;-66
2023/04/05 09:24:45;;;;;;;18.95;9.38;;;7.80;99.90;;;;;;4976370;28;20173;-66
2023/04/05 09:27:16;;;;;;;16.10;8.40;;;7.80;99.90;;;;;;4976232;28;20164;-66
2023/04/05 09:29:44;;;;;;;14.50;8.70;;;7.70;99.90;;;;;;4977833;28;20126;-65
2023/04/05 09:32:11;;;;;;;29.35;13.02;;;7.50;99.90;;;;;;4975495;28;20043;-66
2023/04/05 09:34:37;;;;;;;49.75;18.60;;;7.80;99.90;;;;;;4976956;28;20027;-66
2023/04/05 09:37:15;;;;;;;16.83;9.10;;;7.80;99.90;;;;;;4978044;28;20057;-65
2023/04/05 09:39:42;;;;;;;75.82;30.13;;;7.90;99.90;;;;;;4979817;28;20588;-66
2023/04/05 09:42:13;;;;;;;26.27;12.45;;;7.90;99.90;;;;;;4975518;28;20497;-66
2023/04/05 09:44:56;;;;;;;14.73;8.25;;;7.90;99.90;;;;;;4981599;28;20137;-66
2023/04/05 09:47:29;;;;;;;13.38;6.90;;;7.80;99.90;;;;;;4973753;28;20321;-65
2023/04/05 09:49:56;;;;;;;32.78;13.77;;;7.90;99.90;;;;;;4994877;28;20035;-66
2023/04/05 09:52:25;;;;;;;14.40;8.35;;;7.90;99.90;;;;;;4975729;28;20038;-66
2023/04/05 09:54:54;;;;;;;29.35;11.65;;;8.00;99.90;;;;;;4979601;28;20258;-66
2023/04/05 09:57:20;;;;;;;12.18;8.43;;;8.20;99.90;;;;;;4976351;28;20031;-67
2023/04/05 09:59:46;;;;;;;13.60;7.85;;;8.30;99.90;;;;;;4978806;28;20030;-67
2023/04/05 10:02:12;;;;;;;44.80;16.58;;;8.30;99.90;;;;;;4976199;28;20411;-67
2023/04/05 10:04:41;;;;;;;70.28;29.90;;;8.20;99.90;;;;;;4975679;28;20113;-67
2023/04/05 10:07:14;;;;;;;13.55;7.05;;;8.40;99.90;;;;;;4967358;28;20038;-67
2023/04/05 10:09:42;;;;;;;17.23;9.10;;;8.40;99.90;;;;;;4977318;28;20022;-67
2023/04/05 10:12:09;;;;;;;8.07;6.18;;;8.40;99.90;;;;;;4976089;28;20454;-67
2023/04/05 10:14:36;;;;;;;48.65;19.30;;;8.40;99.90;;;;;;4977778;28;20475;-68
2023/04/05 10:17:11;;;;;;;31.30;12.32;;;8.40;99.90;;;;;;4973281;28;20049;-68
2023/04/05 10:19:51;;;;;;;12.05;8.00;;;8.50;99.90;;;;;;4983719;28;20038;-67
2023/04/05 10:22:24;;;;;;;14.98;8.07;;;8.30;99.90;;;;;;4974693;28;20042;-68
2023/04/05 10:25:04;;;;;;;15.07;8.07;;;8.30;99.90;;;;;;4977752;28;20030;-67
2023/04/05 10:27:34;;;;;;;12.52;7.78;;;8.30;99.90;;;;;;4977185;28;20042;-67
2023/04/05 10:30:07;;;;;;;28.92;12.50;;;8.20;99.90;;;;;;4975071;28;20034;-67
2023/04/05 10:32:33;;;;;;;16.02;7.78;;;8.20;99.90;;;;;;4975703;28;20379;-67
2023/04/05 10:35:15;;;;;;;12.32;7.55;;;8.30;99.90;;;;;;4978688;28;20027;-67
2023/04/05 10:38:11;;;;;;;16.60;8.98;;;8.40;99.90;;;;;;4976547;28;20180;-68
2023/04/05 10:40:37;;;;;;;27.20;12.85;;;8.40;99.90;;;;;;4972295;28;20465;-67
2023/04/05 10:43:05;;;;;;;12.40;7.95;;;8.40;99.90;;;;;;4972749;28;20117;-67
2023/04/05 10:45:32;;;;;;;12.85;8.20;;;8.60;99.90;;;;;;4977917;28;20058;-68
2023/04/05 10:48:05;;;;;;;14.55;8.38;;;8.70;99.90;;;;;;4973417;28;20649;-69
2023/04/05 10:50:31;;;;;;;15.13;9.10;;;8.90;99.90;;;;;;4972940;28;20049;-69
2023/04/05 10:52:59;;;;;;;16.88;8.52;;;9.10;99.90;;;;;;4974517;28;20484;-69
2023/04/05 10:55:25;;;;;;;12.65;8.40;;;9.10;99.90;;;;;;4977943;28;20058;-69
2023/04/05 10:57:52;;;;;;;14.70;8.30;;;9.10;99.90;;;;;;4972658;28;20473;-68
2023/04/05 11:00:18;;;;;;;26.13;12.73;;;9.10;99.90;;;;;;4972605;28;20043;-68
2023/04/05 11:02:44;;;;;;;12.15;7.40;;;9.20;99.90;;;;;;4974956;28;20137;-68
2023/04/05 11:05:33;;;;;;;17.08;8.82;;;9.30;99.90;;;;;;4975633;28;20034;-68
2023/04/05 11:08:05;;;;;;;19.08;9.05;;;9.40;99.90;;;;;;4970765;28;20572;-68
2023/04/05 11:10:33;;;;;;;13.98;8.13;;;9.40;99.90;;;;;;4974846;28;20482;-68
2023/04/05 11:12:59;;;;;;;15.15;8.52;;;9.40;99.90;;;;;;4976488;28;20035;-68
2023/04/05 11:15:26;;;;;;;19.85;10.23;;;9.40;99.90;;;;;;4973044;28;20042;-68
2023/04/05 11:18:14;;;;;;;17.00;8.50;;;9.50;99.90;;;;;;4974641;28;20493;-68
2023/04/05 11:20:45;;;;;;;15.98;8.52;;;9.50;99.90;;;;;;4974644;28;21574;-68
2023/04/05 11:23:17;;;;;;;16.08;7.57;;;9.40;99.90;;;;;;4980015;28;20046;-67
2023/04/05 11:26:09;;;;;;;9.75;7.28;;;9.30;99.90;;;;;;4972708;28;20053;-68
2023/04/05 11:28:39;;;;;;;14.50;7.45;;;9.50;99.90;;;;;;4973061;28;20034;-68
2023/04/05 11:31:16;;;;;;;10.40;6.82;;;9.70;99.90;;;;;;4976273;28;20454;-68
2023/04/05 11:34:11;;;;;;;10.65;6.60;;;9.60;99.90;;;;;;4978590;28;20030;-68
2023/04/05 11:36:40;;;;;;;11.88;6.90;;;9.50;99.90;;;;;;4974889;28;20492;-68
2023/04/05 11:39:18;;;;;;;13.05;7.82;;;9.40;99.90;;;;;;4974807;28;20105;-69
2023/04/05 11:42:04;;;;;;;15.57;8.13;;;9.60;99.90;;;;;;4976986;28;20592;-68
2023/04/05 11:44:52;;;;;;;11.85;7.30;;;9.90;99.90;;;;;;4973487;28;20595;-68
2023/04/05 11:47:22;;;;;;;11.50;7.10;;;10.00;99.90;;;;;;4974850;28;20289;-68
2023/04/05 11:49:51;;;;;;;11.18;7.70;;;9.80;99.90;;;;;;4974194;28;20057;-68
2023/04/05 11:52:18;;;;;;;27.13;12.00;;;9.60;99.90;;;;;;4973753;28;20073;-68
2023/04/05 11:54:45;;;;;;;12.55;8.20;;;9.70;99.90;;;;;;4973650;28;20533;-68
2023/04/05 11:57:21;;;;;;;12.25;7.57;;;9.60;99.90;;;;;;4971023;28;20274;-68
2023/04/05 11:59:50;;;;;;;13.70;8.18;;;9.70;99.90;;;;;;4974720;28;20121;-68
2023/04/05 12:02:16;;;;;;;13.25;7.50;;;9.30;99.90;;;;;;4973637;28;20121;-68
2023/04/05 12:04:42;;;;;;;11.82;7.07;;;9.40;99.90;;;;;;4971766;28;20126;-68
2023/04/05 12:07:12;;;;;;;10.00;7.38;;;9.50;99.90;;;;;;4969250;28;20030;-69
2023/04/05 12:10:00;;;;;;;15.73;7.75;;;9.80;99.90;;;;;;4976924;28;20038;-69
2023/04/05 12:12:25;;;;;;;12.50;8.02;;;9.70;99.90;;;;;;4977362;28;20691;-68
2023/04/05 12:14:56;;;;;;;11.80;7.38;;;9.30;99.90;;;;;;4975523;28;20065;-67
2023/04/05 12:17:37;;;;;;;15.52;9.18;;;9.00;99.90;;;;;;4973446;28;20050;-66
2023/04/05 12:20:03;;;;;;;12.23;7.90;;;9.30;99.90;;;;;;4975969;28;20042;-66
2023/04/05 12:22:28;;;;;;;14.07;7.40;;;9.30;99.90;;;;;;4974361;28;20348;-66
2023/04/05 12:24:54;;;;;;;12.40;7.70;;;9.40;99.90;;;;;;4976630;28;20122;-66
2023/04/05 12:27:20;;;;;;;10.43;7.32;;;9.60;99.90;;;;;;4977222;28;20125;-69
2023/04/05 12:30:05;;;;;;;12.27;7.20;;;9.60;99.90;;;;;;4968415;28;20043;-68
2023/04/05 12:32:41;;;;;;;12.98;7.60;;;9.80;99.90;;;;;;4972044;28;20072;-68
2023/04/05 12:35:14;;;;;;;9.88;6.68;;;9.70;99.90;;;;;;4976318;28;20038;-68
2023/04/05 12:37:40;;;;;;;12.30;7.75;;;9.80;98.40;;;;;;4970911;28;20474;-68
2023/04/05 12:40:07;;;;;;;9.35;6.50;;;9.60;95.50;;;;;;4973387;28;20052;-68
2023/04/05 12:42:34;;;;;;;9.95;6.70;;;9.70;97.50;;;;;;4974269;28;20410;-68
2023/04/05 12:45:22;;;;;;;10.52;7.15;;;9.70;96.20;;;;;;4978517;28;20034;-67
2023/04/05 12:47:55;;;;;;;16.65;7.95;;;9.70;98.00;;;;;;4973114;28;20034;-68
2023/04/05 12:50:25;;;;;;;;;;;9.60;98.70;;;;;;4976432;28;20096;-68
2023/04/05 12:53:05;;;;;;;12.95;7.90;;;9.50;95.80;;;;;;4974395;28;19921;-68